sensor_id;sensor_type;location;lat;lon;timestamp;P1;durP1;ratioP1;P2;durP2;ratioP2
62435;SDS011;48480;50.252;18.848;2023-04-15T00:00:03;7.30;;;5.20;;
62435;SDS011;48480;50.252;18.848;2023-04-15T00:02:29;6.80;;;4.40;;
62435;SDS011;48480;50.252;18.848;2023-04-15T00:04:55;6.10;;;4.90;;
62435;SDS011;48480;50.252;18.848;2023-04-15T00:07:20;7.30;;;5.60;;
62435;SDS011;48480;50.252;18.848;2023-04-15T00:09:46;7.40;;;5.60;;
62435;SDS011;48480;50.252;18.848;2023-04-15T00:12:11;7.30;;;5.50;;
62435;SDS011;48480;50.252;18.848;2023-04-15T00:14:37;8.40;;;5.70;;
62435;SDS011;48480;50.252;18.848;2023-04-15T00:17:04;8.70;;;6.00;;
62435;SDS011;48480;50.252;18.848;2023-04-15T00:19:30;11.90;;;7.70;;
62435;SDS011;48480;50.252;18.848;2023-04-15T00:21:58;9.90;;;7.10;;
62435;SDS011;48480;50.252;18.848;2023-04-15T00:24:27;11.60;;;7.90;;
62435;SDS011;48480;50.252;18.848;2023-04-15T00:26:53;11.90;;;7.50;;
62435;SDS011;48480;50.252;18.848;2023-04-15T00:29:18;11.20;;;7.40;;
62435;SDS011;48480;50.252;18.848;2023-04-15T00:31:44;10.10;;;6.60;;
62435;SDS011;48480;50.252;18.848;2023-04-15T00:34:10;10.80;;;6.60;;
62435;SDS011;48480;50.252;18.848;2023-04-15T00:36:36;9.70;;;6.40;;
62435;SDS011;48480;50.252;18.848;2023-04-15T00:39:01;11.10;;;6.60;;
62435;SDS011;48480;50.252;18.848;2023-04-15T00:41:27;7.60;;;5.70;;
62435;SDS011;48480;50.252;18.848;2023-04-15T00:43:52;8.90;;;5.60;;
62435;SDS011;48480;50.252;18.848;2023-04-15T00:46:18;8.20;;;5.80;;
62435;SDS011;48480;50.252;18.848;2023-04-15T00:48:45;9.70;;;7.30;;
62435;SDS011;48480;50.252;18.848;2023-04-15T00:51:12;14.70;;;9.30;;
62435;SDS011;48480;50.252;18.848;2023-04-15T00:53:38;12.40;;;9.50;;
62435;SDS011;48480;50.252;18.848;2023-04-15T00:56:04;10.70;;;7.20;;
62435;SDS011;48480;50.252;18.848;2023-04-15T00:58:30;13.50;;;9.90;;
62435;SDS011;48480;50.252;18.848;2023-04-15T01:00:55;15.00;;;10.30;;
62435;SDS011;48480;50.252;18.848;2023-04-15T01:03:22;14.40;;;10.10;;
62435;SDS011;48480;50.252;18.848;2023-04-15T01:05:47;11.40;;;8.90;;
62435;SDS011;48480;50.252;18.848;2023-04-15T01:08:14;13.00;;;9.40;;
62435;SDS011;48480;50.252;18.848;2023-04-15T01:10:42;11.80;;;7.90;;
62435;SDS011;48480;50.252;18.848;2023-04-15T01:13:11;9.90;;;7.50;;
62435;SDS011;48480;50.252;18.848;2023-04-15T01:15:36;10.50;;;6.80;;
62435;SDS011;48480;50.252;18.848;2023-04-15T01:18:03;13.00;;;7.80;;
62435;SDS011;48480;50.252;18.848;2023-04-15T01:20:29;10.60;;;7.90;;
62435;SDS011;48480;50.252;18.848;2023-04-15T01:22:54;10.20;;;6.90;;
62435;SDS011;48480;50.252;18.848;2023-04-15T01:25:30;9.60;;;6.80;;
62435;SDS011;48480;50.252;18.848;2023-04-15T01:27:59;10.70;;;6.90;;
62435;SDS011;48480;50.252;18.848;2023-04-15T01:30:25;9.10;;;6.90;;
62435;SDS011;48480;50.252;18.848;2023-04-15T01:32:51;12.00;;;8.20;;
62435;SDS011;48480;50.252;18.848;2023-04-15T01:35:17;13.00;;;8.20;;
62435;SDS011;48480;50.252;18.848;2023-04-15T01:37:43;17.40;;;9.00;;
62435;SDS011;48480;50.252;18.848;2023-04-15T01:40:09;15.00;;;10.90;;
62435;SDS011;48480;50.252;18.848;2023-04-15T01:42:35;18.30;;;11.90;;
62435;SDS011;48480;50.252;18.848;2023-04-15T01:45:01;12.10;;;7.80;;
62435;SDS011;48480;50.252;18.848;2023-04-15T01:47:28;12.70;;;8.50;;
62435;SDS011;48480;50.252;18.848;2023-04-15T01:49:53;14.00;;;9.70;;
62435;SDS011;48480;50.252;18.848;2023-04-15T01:52:18;14.20;;;9.00;;
62435;SDS011;48480;50.252;18.848;2023-04-15T01:54:44;11.70;;;8.00;;
62435;SDS011;48480;50.252;18.848;2023-04-15T01:57:10;10.20;;;7.20;;
62435;SDS011;48480;50.252;18.848;2023-04-15T01:59:36;12.30;;;7.40;;
62435;SDS011;48480;50.252;18.848;2023-04-15T02:02:02;8.70;;;7.20;;
62435;SDS011;48480;50.252;18.848;2023-04-15T02:04:28;12.40;;;7.50;;
62435;SDS011;48480;50.252;18.848;2023-04-15T02:06:54;10.90;;;7.70;;
62435;SDS011;48480;50.252;18.848;2023-04-15T02:09:19;7.80;;;5.50;;
62435;SDS011;48480;50.252;18.848;2023-04-15T02:11:45;8.40;;;5.20;;
62435;SDS011;48480;50.252;18.848;2023-04-15T02:14:10;8.60;;;6.00;;
62435;SDS011;48480;50.252;18.848;2023-04-15T02:16:36;11.30;;;6.30;;
62435;SDS011;48480;50.252;18.848;2023-04-15T02:19:01;8.80;;;5.60;;
62435;SDS011;48480;50.252;18.848;2023-04-15T02:21:28;9.20;;;4.90;;
62435;SDS011;48480;50.252;18.848;2023-04-15T02:23:54;7.80;;;5.10;;
62435;SDS011;48480;50.252;18.848;2023-04-15T02:26:20;8.80;;;4.40;;
62435;SDS011;48480;50.252;18.848;2023-04-15T02:28:46;6.50;;;3.60;;
62435;SDS011;48480;50.252;18.848;2023-04-15T02:31:13;6.30;;;3.30;;
62435;SDS011;48480;50.252;18.848;2023-04-15T02:33:38;5.70;;;3.60;;
62435;SDS011;48480;50.252;18.848;2023-04-15T02:36:04;5.90;;;3.60;;
62435;SDS011;48480;50.252;18.848;2023-04-15T02:38:30;8.60;;;4.90;;
62435;SDS011;48480;50.252;18.848;2023-04-15T02:40:56;6.90;;;4.40;;
62435;SDS011;48480;50.252;18.848;2023-04-15T02:43:21;6.80;;;4.40;;
62435;SDS011;48480;50.252;18.848;2023-04-15T02:45:47;7.30;;;4.50;;
62435;SDS011;48480;50.252;18.848;2023-04-15T02:48:13;6.70;;;4.30;;
62435;SDS011;48480;50.252;18.848;2023-04-15T02:50:39;6.50;;;4.00;;
62435;SDS011;48480;50.252;18.848;2023-04-15T02:53:05;6.40;;;4.00;;
62435;SDS011;48480;50.252;18.848;2023-04-15T02:55:31;6.90;;;4.70;;
62435;SDS011;48480;50.252;18.848;2023-04-15T02:57:56;7.10;;;4.90;;
62435;SDS011;48480;50.252;18.848;2023-04-15T03:00:25;10.20;;;5.60;;
62435;SDS011;48480;50.252;18.848;2023-04-15T03:02:56;7.80;;;6.10;;
62435;SDS011;48480;50.252;18.848;2023-04-15T03:05:23;9.10;;;5.30;;
62435;SDS011;48480;50.252;18.848;2023-04-15T03:07:51;10.80;;;5.70;;
62435;SDS011;48480;50.252;18.848;2023-04-15T03:10:17;8.70;;;6.00;;
62435;SDS011;48480;50.252;18.848;2023-04-15T03:12:42;8.70;;;5.50;;
62435;SDS011;48480;50.252;18.848;2023-04-15T03:15:08;8.50;;;5.60;;
62435;SDS011;48480;50.252;18.848;2023-04-15T03:17:34;9.80;;;5.50;;
62435;SDS011;48480;50.252;18.848;2023-04-15T03:20:03;9.70;;;5.30;;
62435;SDS011;48480;50.252;18.848;2023-04-15T03:22:33;11.20;;;5.80;;
62435;SDS011;48480;50.252;18.848;2023-04-15T03:24:58;10.90;;;6.10;;
62435;SDS011;48480;50.252;18.848;2023-04-15T03:27:24;13.00;;;7.00;;
62435;SDS011;48480;50.252;18.848;2023-04-15T03:29:50;13.60;;;7.00;;
62435;SDS011;48480;50.252;18.848;2023-04-15T03:32:16;13.50;;;7.70;;
62435;SDS011;48480;50.252;18.848;2023-04-15T03:34:41;12.90;;;8.30;;
62435;SDS011;48480;50.252;18.848;2023-04-15T03:37:07;13.80;;;8.70;;
62435;SDS011;48480;50.252;18.848;2023-04-15T03:39:33;13.60;;;8.90;;
62435;SDS011;48480;50.252;18.848;2023-04-15T03:41:59;17.70;;;10.60;;
62435;SDS011;48480;50.252;18.848;2023-04-15T03:44:25;18.70;;;11.10;;
62435;SDS011;48480;50.252;18.848;2023-04-15T03:46:51;18.30;;;10.50;;
62435;SDS011;48480;50.252;18.848;2023-04-15T03:49:16;16.40;;;10.80;;
62435;SDS011;48480;50.252;18.848;2023-04-15T03:51:43;18.00;;;10.90;;
62435;SDS011;48480;50.252;18.848;2023-04-15T03:54:09;17.60;;;10.40;;
62435;SDS011;48480;50.252;18.848;2023-04-15T03:56:35;17.50;;;11.20;;
62435;SDS011;48480;50.252;18.848;2023-04-15T03:59:01;17.40;;;10.70;;
62435;SDS011;48480;50.252;18.848;2023-04-15T04:01:26;20.20;;;11.90;;
62435;SDS011;48480;50.252;18.848;2023-04-15T04:03:52;17.90;;;11.60;;
62435;SDS011;48480;50.252;18.848;2023-04-15T04:06:17;18.50;;;12.20;;
62435;SDS011;48480;50.252;18.848;2023-04-15T04:08:43;18.00;;;10.90;;
62435;SDS011;48480;50.252;18.848;2023-04-15T04:11:08;18.40;;;11.60;;
62435;SDS011;48480;50.252;18.848;2023-04-15T04:13:33;15.30;;;10.30;;
62435;SDS011;48480;50.252;18.848;2023-04-15T04:15:59;16.70;;;9.80;;
62435;SDS011;48480;50.252;18.848;2023-04-15T04:18:24;15.30;;;10.50;;
62435;SDS011;48480;50.252;18.848;2023-04-15T04:20:50;14.30;;;8.60;;
62435;SDS011;48480;50.252;18.848;2023-04-15T04:23:15;12.70;;;7.40;;
62435;SDS011;48480;50.252;18.848;2023-04-15T04:25:41;12.60;;;8.00;;
62435;SDS011;48480;50.252;18.848;2023-04-15T04:28:06;10.30;;;7.20;;
62435;SDS011;48480;50.252;18.848;2023-04-15T04:30:32;11.90;;;8.70;;
62435;SDS011;48480;50.252;18.848;2023-04-15T04:32:57;13.80;;;8.30;;
62435;SDS011;48480;50.252;18.848;2023-04-15T04:35:23;15.30;;;8.40;;
62435;SDS011;48480;50.252;18.848;2023-04-15T04:37:48;16.30;;;7.90;;
62435;SDS011;48480;50.252;18.848;2023-04-15T04:40:14;13.20;;;7.40;;
62435;SDS011;48480;50.252;18.848;2023-04-15T04:42:40;14.00;;;7.30;;
62435;SDS011;48480;50.252;18.848;2023-04-15T04:45:06;12.90;;;7.50;;
62435;SDS011;48480;50.252;18.848;2023-04-15T04:47:32;11.40;;;6.90;;
62435;SDS011;48480;50.252;18.848;2023-04-15T04:49:58;11.80;;;8.30;;
62435;SDS011;48480;50.252;18.848;2023-04-15T04:52:23;13.50;;;8.50;;
62435;SDS011;48480;50.252;18.848;2023-04-15T04:54:49;13.20;;;8.50;;
62435;SDS011;48480;50.252;18.848;2023-04-15T04:57:14;13.80;;;8.90;;
62435;SDS011;48480;50.252;18.848;2023-04-15T04:59:40;14.10;;;8.50;;
62435;SDS011;48480;50.252;18.848;2023-04-15T05:02:05;13.90;;;9.40;;
62435;SDS011;48480;50.252;18.848;2023-04-15T05:04:31;17.80;;;11.20;;
62435;SDS011;48480;50.252;18.848;2023-04-15T05:06:57;18.40;;;12.10;;
62435;SDS011;48480;50.252;18.848;2023-04-15T05:09:23;22.60;;;14.20;;
62435;SDS011;48480;50.252;18.848;2023-04-15T05:11:49;37.70;;;24.00;;
62435;SDS011;48480;50.252;18.848;2023-04-15T05:14:15;28.60;;;21.40;;
62435;SDS011;48480;50.252;18.848;2023-04-15T05:16:40;27.80;;;15.80;;
62435;SDS011;48480;50.252;18.848;2023-04-15T05:19:05;19.40;;;13.60;;
62435;SDS011;48480;50.252;18.848;2023-04-15T05:21:31;16.90;;;11.90;;
62435;SDS011;48480;50.252;18.848;2023-04-15T05:23:57;16.50;;;10.30;;
62435;SDS011;48480;50.252;18.848;2023-04-15T05:26:23;14.70;;;9.30;;
62435;SDS011;48480;50.252;18.848;2023-04-15T05:28:48;14.20;;;8.90;;
62435;SDS011;48480;50.252;18.848;2023-04-15T05:31:14;14.20;;;9.10;;
62435;SDS011;48480;50.252;18.848;2023-04-15T05:33:40;15.20;;;10.10;;
62435;SDS011;48480;50.252;18.848;2023-04-15T05:36:06;18.00;;;11.00;;
62435;SDS011;48480;50.252;18.848;2023-04-15T05:38:31;15.50;;;10.20;;
62435;SDS011;48480;50.252;18.848;2023-04-15T05:40:57;16.80;;;11.30;;
62435;SDS011;48480;50.252;18.848;2023-04-15T05:43:23;15.30;;;11.60;;
62435;SDS011;48480;50.252;18.848;2023-04-15T05:45:48;16.40;;;12.30;;
62435;SDS011;48480;50.252;18.848;2023-04-15T05:48:14;17.10;;;12.40;;
62435;SDS011;48480;50.252;18.848;2023-04-15T05:50:40;18.30;;;13.40;;
62435;SDS011;48480;50.252;18.848;2023-04-15T05:53:06;20.30;;;12.80;;
62435;SDS011;48480;50.252;18.848;2023-04-15T05:55:32;17.40;;;12.50;;
62435;SDS011;48480;50.252;18.848;2023-04-15T05:57:58;18.20;;;12.10;;
62435;SDS011;48480;50.252;18.848;2023-04-15T06:00:23;19.50;;;12.20;;
62435;SDS011;48480;50.252;18.848;2023-04-15T06:02:50;15.70;;;11.20;;
62435;SDS011;48480;50.252;18.848;2023-04-15T06:05:16;16.50;;;10.60;;
62435;SDS011;48480;50.252;18.848;2023-04-15T06:07:43;17.60;;;11.30;;
62435;SDS011;48480;50.252;18.848;2023-04-15T06:10:08;17.10;;;10.40;;
62435;SDS011;48480;50.252;18.848;2023-04-15T06:12:34;16.20;;;10.00;;
62435;SDS011;48480;50.252;18.848;2023-04-15T06:15:00;17.20;;;9.20;;
62435;SDS011;48480;50.252;18.848;2023-04-15T06:17:26;15.10;;;10.00;;
62435;SDS011;48480;50.252;18.848;2023-04-15T06:19:52;13.90;;;8.90;;
62435;SDS011;48480;50.252;18.848;2023-04-15T06:22:21;13.50;;;8.10;;
62435;SDS011;48480;50.252;18.848;2023-04-15T06:24:47;14.40;;;9.10;;
62435;SDS011;48480;50.252;18.848;2023-04-15T06:27:17;12.90;;;9.10;;
62435;SDS011;48480;50.252;18.848;2023-04-15T06:29:43;10.70;;;7.60;;
62435;SDS011;48480;50.252;18.848;2023-04-15T06:32:09;12.70;;;8.70;;
62435;SDS011;48480;50.252;18.848;2023-04-15T06:34:35;11.70;;;8.00;;
62435;SDS011;48480;50.252;18.848;2023-04-15T06:37:00;12.70;;;8.30;;
62435;SDS011;48480;50.252;18.848;2023-04-15T06:39:26;10.40;;;7.30;;
62435;SDS011;48480;50.252;18.848;2023-04-15T06:41:52;10.50;;;8.00;;
62435;SDS011;48480;50.252;18.848;2023-04-15T06:44:17;10.10;;;6.90;;
62435;SDS011;48480;50.252;18.848;2023-04-15T06:46:43;10.00;;;6.20;;
62435;SDS011;48480;50.252;18.848;2023-04-15T06:49:09;8.80;;;6.20;;
62435;SDS011;48480;50.252;18.848;2023-04-15T06:51:36;7.50;;;5.60;;
62435;SDS011;48480;50.252;18.848;2023-04-15T06:54:02;7.40;;;5.60;;
62435;SDS011;48480;50.252;18.848;2023-04-15T06:56:31;10.40;;;6.50;;
62435;SDS011;48480;50.252;18.848;2023-04-15T06:58:57;9.60;;;6.70;;
62435;SDS011;48480;50.252;18.848;2023-04-15T07:01:25;6.40;;;4.80;;
62435;SDS011;48480;50.252;18.848;2023-04-15T07:03:51;5.90;;;4.40;;
62435;SDS011;48480;50.252;18.848;2023-04-15T07:06:17;6.60;;;4.30;;
62435;SDS011;48480;50.252;18.848;2023-04-15T07:08:42;7.70;;;5.40;;
62435;SDS011;48480;50.252;18.848;2023-04-15T07:11:09;9.20;;;5.80;;
62435;SDS011;48480;50.252;18.848;2023-04-15T07:13:34;7.20;;;5.10;;
62435;SDS011;48480;50.252;18.848;2023-04-15T07:16:00;9.90;;;6.30;;
62435;SDS011;48480;50.252;18.848;2023-04-15T07:18:26;8.20;;;5.30;;
62435;SDS011;48480;50.252;18.848;2023-04-15T07:20:51;7.30;;;5.60;;
62435;SDS011;48480;50.252;18.848;2023-04-15T07:23:17;7.20;;;5.50;;
62435;SDS011;48480;50.252;18.848;2023-04-15T07:25:43;8.50;;;5.70;;
62435;SDS011;48480;50.252;18.848;2023-04-15T07:28:08;6.80;;;4.90;;
62435;SDS011;48480;50.252;18.848;2023-04-15T07:30:34;7.10;;;4.90;;
62435;SDS011;48480;50.252;18.848;2023-04-15T07:33:00;7.80;;;5.30;;
62435;SDS011;48480;50.252;18.848;2023-04-15T07:35:26;6.80;;;5.20;;
62435;SDS011;48480;50.252;18.848;2023-04-15T07:37:52;8.70;;;5.30;;
62435;SDS011;48480;50.252;18.848;2023-04-15T07:40:18;6.30;;;4.40;;
62435;SDS011;48480;50.252;18.848;2023-04-15T07:42:44;6.00;;;3.90;;
62435;SDS011;48480;50.252;18.848;2023-04-15T07:45:10;6.20;;;4.30;;
62435;SDS011;48480;50.252;18.848;2023-04-15T07:47:37;7.40;;;4.70;;
62435;SDS011;48480;50.252;18.848;2023-04-15T07:50:02;5.30;;;4.00;;
62435;SDS011;48480;50.252;18.848;2023-04-15T07:52:28;5.40;;;4.30;;
62435;SDS011;48480;50.252;18.848;2023-04-15T07:54:54;7.20;;;4.20;;
62435;SDS011;48480;50.252;18.848;2023-04-15T07:57:32;6.60;;;4.10;;
62435;SDS011;48480;50.252;18.848;2023-04-15T07:59:59;6.80;;;4.40;;
62435;SDS011;48480;50.252;18.848;2023-04-15T08:02:25;5.40;;;3.90;;
62435;SDS011;48480;50.252;18.848;2023-04-15T08:04:50;4.70;;;3.60;;
62435;SDS011;48480;50.252;18.848;2023-04-15T08:07:17;5.80;;;3.60;;
62435;SDS011;48480;50.252;18.848;2023-04-15T08:09:42;5.90;;;3.70;;
62435;SDS011;48480;50.252;18.848;2023-04-15T08:12:08;7.10;;;4.70;;
62435;SDS011;48480;50.252;18.848;2023-04-15T08:14:37;4.90;;;3.70;;
62435;SDS011;48480;50.252;18.848;2023-04-15T08:17:02;5.80;;;4.30;;
62435;SDS011;48480;50.252;18.848;2023-04-15T08:19:29;5.50;;;3.80;;
62435;SDS011;48480;50.252;18.848;2023-04-15T08:21:55;4.00;;;2.20;;
62435;SDS011;48480;50.252;18.848;2023-04-15T08:24:23;2.50;;;1.50;;
62435;SDS011;48480;50.252;18.848;2023-04-15T08:26:50;2.50;;;1.80;;
62435;SDS011;48480;50.252;18.848;2023-04-15T08:29:16;3.40;;;2.20;;
62435;SDS011;48480;50.252;18.848;2023-04-15T08:31:42;3.30;;;2.10;;
62435;SDS011;48480;50.252;18.848;2023-04-15T08:34:10;4.40;;;2.30;;
62435;SDS011;48480;50.252;18.848;2023-04-15T08:36:36;2.90;;;1.80;;
62435;SDS011;48480;50.252;18.848;2023-04-15T08:39:02;2.70;;;1.40;;
62435;SDS011;48480;50.252;18.848;2023-04-15T08:41:30;2.10;;;1.20;;
62435;SDS011;48480;50.252;18.848;2023-04-15T08:44:03;2.00;;;1.20;;
62435;SDS011;48480;50.252;18.848;2023-04-15T08:46:30;2.30;;;1.50;;
62435;SDS011;48480;50.252;18.848;2023-04-15T08:48:59;2.20;;;1.40;;
62435;SDS011;48480;50.252;18.848;2023-04-15T08:51:30;2.50;;;1.50;;
62435;SDS011;48480;50.252;18.848;2023-04-15T08:53:58;2.00;;;1.40;;
62435;SDS011;48480;50.252;18.848;2023-04-15T08:56:25;2.80;;;1.40;;
62435;SDS011;48480;50.252;18.848;2023-04-15T08:58:52;3.50;;;1.70;;
62435;SDS011;48480;50.252;18.848;2023-04-15T09:01:18;2.80;;;2.20;;
62435;SDS011;48480;50.252;18.848;2023-04-15T09:03:43;3.30;;;1.60;;
62435;SDS011;48480;50.252;18.848;2023-04-15T09:06:10;2.80;;;1.40;;
62435;SDS011;48480;50.252;18.848;2023-04-15T09:08:35;1.90;;;1.20;;
62435;SDS011;48480;50.252;18.848;2023-04-15T09:11:04;3.80;;;1.60;;
62435;SDS011;48480;50.252;18.848;2023-04-15T09:13:29;2.60;;;1.50;;
62435;SDS011;48480;50.252;18.848;2023-04-15T09:15:55;2.40;;;1.40;;
62435;SDS011;48480;50.252;18.848;2023-04-15T09:18:32;2.60;;;1.80;;
62435;SDS011;48480;50.252;18.848;2023-04-15T09:21:03;4.00;;;1.80;;
62435;SDS011;48480;50.252;18.848;2023-04-15T09:23:37;2.20;;;1.40;;
62435;SDS011;48480;50.252;18.848;2023-04-15T09:26:03;3.10;;;1.80;;
62435;SDS011;48480;50.252;18.848;2023-04-15T09:28:29;2.50;;;1.70;;
62435;SDS011;48480;50.252;18.848;2023-04-15T09:30:56;4.30;;;2.00;;
62435;SDS011;48480;50.252;18.848;2023-04-15T09:33:26;2.70;;;1.70;;
62435;SDS011;48480;50.252;18.848;2023-04-15T09:35:59;2.40;;;1.50;;
62435;SDS011;48480;50.252;18.848;2023-04-15T09:38:26;2.20;;;1.40;;
62435;SDS011;48480;50.252;18.848;2023-04-15T09:40:52;2.10;;;1.40;;
62435;SDS011;48480;50.252;18.848;2023-04-15T09:43:18;2.90;;;1.70;;
62435;SDS011;48480;50.252;18.848;2023-04-15T09:45:47;3.90;;;2.10;;
62435;SDS011;48480;50.252;18.848;2023-04-15T09:48:16;2.00;;;1.60;;
62435;SDS011;48480;50.252;18.848;2023-04-15T09:50:51;2.30;;;1.50;;
62435;SDS011;48480;50.252;18.848;2023-04-15T09:53:22;2.70;;;1.50;;
62435;SDS011;48480;50.252;18.848;2023-04-15T09:55:54;2.50;;;1.70;;
62435;SDS011;48480;50.252;18.848;2023-04-15T09:58:25;2.60;;;1.80;;
62435;SDS011;48480;50.252;18.848;2023-04-15T10:00:56;2.70;;;1.90;;
62435;SDS011;48480;50.252;18.848;2023-04-15T10:05:53;3.30;;;1.60;;
62435;SDS011;48480;50.252;18.848;2023-04-15T10:08:22;3.30;;;2.20;;
62435;SDS011;48480;50.252;18.848;2023-04-15T10:10:49;2.90;;;2.00;;
62435;SDS011;48480;50.252;18.848;2023-04-15T10:13:19;2.80;;;1.80;;
62435;SDS011;48480;50.252;18.848;2023-04-15T10:15:57;3.30;;;2.30;;
62435;SDS011;48480;50.252;18.848;2023-04-15T10:18:26;3.00;;;1.80;;
62435;SDS011;48480;50.252;18.848;2023-04-15T10:20:52;2.20;;;1.70;;
62435;SDS011;48480;50.252;18.848;2023-04-15T10:23:19;3.40;;;1.70;;
62435;SDS011;48480;50.252;18.848;2023-04-15T10:25:45;2.50;;;1.70;;
62435;SDS011;48480;50.252;18.848;2023-04-15T10:28:11;3.20;;;1.90;;
62435;SDS011;48480;50.252;18.848;2023-04-15T10:30:39;3.00;;;1.90;;
62435;SDS011;48480;50.252;18.848;2023-04-15T10:33:05;2.50;;;1.70;;
62435;SDS011;48480;50.252;18.848;2023-04-15T10:35:33;3.60;;;1.80;;
62435;SDS011;48480;50.252;18.848;2023-04-15T10:38:00;3.30;;;1.60;;
62435;SDS011;48480;50.252;18.848;2023-04-15T10:40:29;3.40;;;1.70;;
62435;SDS011;48480;50.252;18.848;2023-04-15T10:42:57;2.30;;;1.70;;
62435;SDS011;48480;50.252;18.848;2023-04-15T10:45:35;2.90;;;2.40;;
62435;SDS011;48480;50.252;18.848;2023-04-15T10:48:02;3.20;;;2.50;;
62435;SDS011;48480;50.252;18.848;2023-04-15T10:50:31;2.80;;;1.80;;
62435;SDS011;48480;50.252;18.848;2023-04-15T10:52:57;3.80;;;1.90;;
62435;SDS011;48480;50.252;18.848;2023-04-15T10:55:39;2.10;;;1.50;;
62435;SDS011;48480;50.252;18.848;2023-04-15T11:00:31;2.90;;;1.90;;
62435;SDS011;48480;50.252;18.848;2023-04-15T11:03:06;2.70;;;2.00;;
62435;SDS011;48480;50.252;18.848;2023-04-15T11:08:05;2.00;;;1.60;;
62435;SDS011;48480;50.252;18.848;2023-04-15T11:12:58;2.20;;;1.70;;
62435;SDS011;48480;50.252;18.848;2023-04-15T11:17:58;2.80;;;2.00;;
62435;SDS011;48480;50.252;18.848;2023-04-15T11:20:32;2.50;;;1.90;;
62435;SDS011;48480;50.252;18.848;2023-04-15T11:22:58;3.20;;;1.90;;
62435;SDS011;48480;50.252;18.848;2023-04-15T11:25:24;11.90;;;7.80;;
62435;SDS011;48480;50.252;18.848;2023-04-15T11:27:52;3.40;;;3.00;;
62435;SDS011;48480;50.252;18.848;2023-04-15T11:30:25;3.20;;;1.80;;
62435;SDS011;48480;50.252;18.848;2023-04-15T11:32:59;2.90;;;1.70;;
62435;SDS011;48480;50.252;18.848;2023-04-15T11:35:27;2.60;;;1.90;;
62435;SDS011;48480;50.252;18.848;2023-04-15T11:37:53;3.30;;;2.00;;
62435;SDS011;48480;50.252;18.848;2023-04-15T11:40:23;2.80;;;1.90;;
62435;SDS011;48480;50.252;18.848;2023-04-15T11:45:50;4.10;;;2.00;;
62435;SDS011;48480;50.252;18.848;2023-04-15T11:48:21;2.80;;;2.30;;
62435;SDS011;48480;50.252;18.848;2023-04-15T11:50:56;3.60;;;2.20;;
62435;SDS011;48480;50.252;18.848;2023-04-15T11:53:36;2.60;;;2.00;;
62435;SDS011;48480;50.252;18.848;2023-04-15T11:56:05;2.40;;;1.90;;
62435;SDS011;48480;50.252;18.848;2023-04-15T11:58:33;2.70;;;1.80;;
62435;SDS011;48480;50.252;18.848;2023-04-15T12:01:02;5.00;;;2.40;;
62435;SDS011;48480;50.252;18.848;2023-04-15T12:03:30;4.70;;;2.80;;
62435;SDS011;48480;50.252;18.848;2023-04-15T12:08:48;4.50;;;2.90;;
62435;SDS011;48480;50.252;18.848;2023-04-15T12:11:29;3.70;;;2.80;;
62435;SDS011;48480;50.252;18.848;2023-04-15T12:13:57;4.40;;;3.10;;
62435;SDS011;48480;50.252;18.848;2023-04-15T12:16:28;6.40;;;4.10;;
62435;SDS011;48480;50.252;18.848;2023-04-15T12:18:54;7.50;;;5.40;;
62435;SDS011;48480;50.252;18.848;2023-04-15T12:21:23;6.00;;;3.80;;
62435;SDS011;48480;50.252;18.848;2023-04-15T12:23:50;4.70;;;3.20;;
62435;SDS011;48480;50.252;18.848;2023-04-15T12:26:26;3.90;;;2.50;;
62435;SDS011;48480;50.252;18.848;2023-04-15T12:29:08;4.40;;;2.90;;
62435;SDS011;48480;50.252;18.848;2023-04-15T12:31:36;3.90;;;2.20;;
62435;SDS011;48480;50.252;18.848;2023-04-15T12:34:10;4.10;;;2.50;;
62435;SDS011;48480;50.252;18.848;2023-04-15T12:36:36;5.00;;;2.50;;
62435;SDS011;48480;50.252;18.848;2023-04-15T12:39:03;3.40;;;2.20;;
62435;SDS011;48480;50.252;18.848;2023-04-15T12:41:30;3.20;;;2.10;;
62435;SDS011;48480;50.252;18.848;2023-04-15T12:43:56;3.60;;;2.40;;
62435;SDS011;48480;50.252;18.848;2023-04-15T12:46:21;4.90;;;2.20;;
62435;SDS011;48480;50.252;18.848;2023-04-15T12:48:49;4.00;;;2.20;;
62435;SDS011;48480;50.252;18.848;2023-04-15T12:51:17;3.00;;;2.00;;
62435;SDS011;48480;50.252;18.848;2023-04-15T12:53:45;3.70;;;2.40;;
62435;SDS011;48480;50.252;18.848;2023-04-15T12:56:11;3.50;;;2.20;;
62435;SDS011;48480;50.252;18.848;2023-04-15T12:58:37;5.30;;;2.30;;
62435;SDS011;48480;50.252;18.848;2023-04-15T13:01:02;3.80;;;2.30;;
62435;SDS011;48480;50.252;18.848;2023-04-15T13:03:28;2.50;;;1.90;;
62435;SDS011;48480;50.252;18.848;2023-04-15T13:05:53;3.30;;;2.30;;
62435;SDS011;48480;50.252;18.848;2023-04-15T13:08:19;4.40;;;2.60;;
62435;SDS011;48480;50.252;18.848;2023-04-15T13:10:45;3.30;;;2.30;;
62435;SDS011;48480;50.252;18.848;2023-04-15T13:13:10;4.50;;;3.40;;
62435;SDS011;48480;50.252;18.848;2023-04-15T13:15:36;5.10;;;3.50;;
62435;SDS011;48480;50.252;18.848;2023-04-15T13:18:02;3.30;;;3.00;;
62435;SDS011;48480;50.252;18.848;2023-04-15T13:20:29;5.10;;;3.30;;
62435;SDS011;48480;50.252;18.848;2023-04-15T13:22:54;4.60;;;3.00;;
62435;SDS011;48480;50.252;18.848;2023-04-15T13:25:20;4.20;;;2.70;;
62435;SDS011;48480;50.252;18.848;2023-04-15T13:27:47;3.70;;;2.80;;
62435;SDS011;48480;50.252;18.848;2023-04-15T13:30:12;4.50;;;2.90;;
62435;SDS011;48480;50.252;18.848;2023-04-15T13:32:38;4.40;;;3.00;;
62435;SDS011;48480;50.252;18.848;2023-04-15T13:35:03;5.40;;;3.20;;
62435;SDS011;48480;50.252;18.848;2023-04-15T13:37:30;4.30;;;3.20;;
62435;SDS011;48480;50.252;18.848;2023-04-15T13:39:56;7.80;;;5.20;;
62435;SDS011;48480;50.252;18.848;2023-04-15T13:42:22;6.80;;;4.10;;
62435;SDS011;48480;50.252;18.848;2023-04-15T13:44:48;5.00;;;3.60;;
62435;SDS011;48480;50.252;18.848;2023-04-15T13:47:16;5.00;;;3.90;;
62435;SDS011;48480;50.252;18.848;2023-04-15T13:49:43;6.90;;;5.00;;
62435;SDS011;48480;50.252;18.848;2023-04-15T13:52:08;6.50;;;4.70;;
62435;SDS011;48480;50.252;18.848;2023-04-15T13:54:34;8.90;;;5.10;;
62435;SDS011;48480;50.252;18.848;2023-04-15T13:57:00;6.00;;;4.40;;
62435;SDS011;48480;50.252;18.848;2023-04-15T13:59:26;9.90;;;5.00;;
62435;SDS011;48480;50.252;18.848;2023-04-15T14:01:52;10.70;;;4.60;;
62435;SDS011;48480;50.252;18.848;2023-04-15T14:04:18;7.20;;;4.40;;
62435;SDS011;48480;50.252;18.848;2023-04-15T14:06:44;7.80;;;4.40;;
62435;SDS011;48480;50.252;18.848;2023-04-15T14:09:10;6.50;;;4.00;;
62435;SDS011;48480;50.252;18.848;2023-04-15T14:11:39;6.90;;;4.50;;
62435;SDS011;48480;50.252;18.848;2023-04-15T14:14:05;9.60;;;5.60;;
62435;SDS011;48480;50.252;18.848;2023-04-15T14:16:33;7.70;;;4.40;;
62435;SDS011;48480;50.252;18.848;2023-04-15T14:19:06;7.30;;;4.70;;
62435;SDS011;48480;50.252;18.848;2023-04-15T14:21:31;6.80;;;4.90;;
62435;SDS011;48480;50.252;18.848;2023-04-15T14:23:57;8.40;;;4.70;;
62435;SDS011;48480;50.252;18.848;2023-04-15T14:26:23;9.50;;;6.20;;
62435;SDS011;48480;50.252;18.848;2023-04-15T14:28:48;6.70;;;5.40;;
62435;SDS011;48480;50.252;18.848;2023-04-15T14:31:14;8.80;;;5.30;;
62435;SDS011;48480;50.252;18.848;2023-04-15T14:33:40;8.10;;;5.00;;
62435;SDS011;48480;50.252;18.848;2023-04-15T14:36:06;7.50;;;4.90;;
62435;SDS011;48480;50.252;18.848;2023-04-15T14:38:34;7.60;;;5.00;;
62435;SDS011;48480;50.252;18.848;2023-04-15T14:41:07;7.90;;;5.10;;
62435;SDS011;48480;50.252;18.848;2023-04-15T14:43:34;7.20;;;4.00;;